sensor_id;sensor_type;location;lat;lon;timestamp;P1;durP1;ratioP1;P2;durP2;ratioP2
43154;SDS011;34212;51.018;13.586;2024-02-28T00:03:06;256.80;;;21.55;;
43154;SDS011;34212;51.018;13.586;2024-02-28T00:08:08;278.85;;;20.15;;
43154;SDS011;34212;51.018;13.586;2024-02-28T00:13:09;152.88;;;16.77;;
43154;SDS011;34212;51.018;13.586;2024-02-28T00:18:11;126.90;;;16.63;;
43154;SDS011;34212;51.018;13.586;2024-02-28T00:23:13;154.75;;;17.10;;
43154;SDS011;34212;51.018;13.586;2024-02-28T00:28:14;163.52;;;16.77;;
43154;SDS011;34212;51.018;13.586;2024-02-28T00:33:16;169.15;;;16.80;;
43154;SDS011;34212;51.018;13.586;2024-02-28T00:38:18;71.35;;;14.25;;
43154;SDS011;34212;51.018;13.586;2024-02-28T00:43:19;130.60;;;16.90;;
43154;SDS011;34212;51.018;13.586;2024-02-28T00:48:22;146.38;;;16.23;;
43154;SDS011;34212;51.018;13.586;2024-02-28T00:53:23;79.55;;;14.07;;
43154;SDS011;34212;51.018;13.586;2024-02-28T00:58:25;80.10;;;15.32;;
43154;SDS011;34212;51.018;13.586;2024-02-28T01:03:29;86.95;;;15.07;;
43154;SDS011;34212;51.018;13.586;2024-02-28T01:08:30;145.10;;;16.73;;
43154;SDS011;34212;51.018;13.586;2024-02-28T01:13:32;153.30;;;17.40;;
43154;SDS011;34212;51.018;13.586;2024-02-28T01:18:33;126.30;;;15.32;;
43154;SDS011;34212;51.018;13.586;2024-02-28T01:23:35;112.35;;;13.95;;
43154;SDS011;34212;51.018;13.586;2024-02-28T01:28:36;126.30;;;14.88;;
43154;SDS011;34212;51.018;13.586;2024-02-28T01:33:38;133.98;;;14.93;;
43154;SDS011;34212;51.018;13.586;2024-02-28T01:38:39;88.90;;;13.80;;
43154;SDS011;34212;51.018;13.586;2024-02-28T01:43:41;80.82;;;13.27;;
43154;SDS011;34212;51.018;13.586;2024-02-28T01:48:42;83.07;;;13.07;;
43154;SDS011;34212;51.018;13.586;2024-02-28T01:53:44;207.75;;;18.25;;
43154;SDS011;34212;51.018;13.586;2024-02-28T01:58:47;345.13;;;17.92;;
43154;SDS011;34212;51.018;13.586;2024-02-28T02:03:49;228.48;;;16.83;;
43154;SDS011;34212;51.018;13.586;2024-02-28T02:08:51;326.55;;;17.90;;
43154;SDS011;34212;51.018;13.586;2024-02-28T02:13:52;187.68;;;15.13;;
43154;SDS011;34212;51.018;13.586;2024-02-28T02:18:54;309.57;;;18.23;;
43154;SDS011;34212;51.018;13.586;2024-02-28T02:23:56;367.08;;;20.90;;
43154;SDS011;34212;51.018;13.586;2024-02-28T02:28:58;194.13;;;16.38;;
43154;SDS011;34212;51.018;13.586;2024-02-28T02:33:59;115.30;;;15.30;;
43154;SDS011;34212;51.018;13.586;2024-02-28T02:39:01;104.22;;;16.08;;
43154;SDS011;34212;51.018;13.586;2024-02-28T02:44:03;264.48;;;19.42;;
43154;SDS011;34212;51.018;13.586;2024-02-28T02:49:05;314.23;;;19.23;;
43154;SDS011;34212;51.018;13.586;2024-02-28T02:54:06;349.63;;;21.15;;
43154;SDS011;34212;51.018;13.586;2024-02-28T02:59:09;352.67;;;20.38;;
43154;SDS011;34212;51.018;13.586;2024-02-28T03:04:12;429.73;;;23.80;;
43154;SDS011;34212;51.018;13.586;2024-02-28T03:09:13;372.13;;;21.27;;
43154;SDS011;34212;51.018;13.586;2024-02-28T03:14:15;348.67;;;20.58;;
43154;SDS011;34212;51.018;13.586;2024-02-28T03:19:17;411.30;;;23.33;;
43154;SDS011;34212;51.018;13.586;2024-02-28T03:24:18;280.73;;;18.52;;
43154;SDS011;34212;51.018;13.586;2024-02-28T03:29:20;307.85;;;19.30;;
43154;SDS011;34212;51.018;13.586;2024-02-28T03:34:21;237.48;;;16.75;;
43154;SDS011;34212;51.018;13.586;2024-02-28T03:39:23;318.23;;;18.85;;
43154;SDS011;34212;51.018;13.586;2024-02-28T03:44:25;319.97;;;18.90;;
43154;SDS011;34212;51.018;13.586;2024-02-28T03:49:27;309.75;;;18.38;;
43154;SDS011;34212;51.018;13.586;2024-02-28T03:54:28;393.58;;;22.27;;
43154;SDS011;34212;51.018;13.586;2024-02-28T03:59:30;286.63;;;17.85;;
43154;SDS011;34212;51.018;13.586;2024-02-28T04:04:31;415.50;;;20.67;;
43154;SDS011;34212;51.018;13.586;2024-02-28T04:09:33;432.80;;;22.42;;
43154;SDS011;34212;51.018;13.586;2024-02-28T04:14:37;467.33;;;24.02;;
43154;SDS011;34212;51.018;13.586;2024-02-28T04:19:39;339.27;;;22.25;;
43154;SDS011;34212;51.018;13.586;2024-02-28T04:24:41;212.98;;;17.13;;
43154;SDS011;34212;51.018;13.586;2024-02-28T04:29:42;163.98;;;15.32;;
43154;SDS011;34212;51.018;13.586;2024-02-28T04:34:44;267.17;;;18.10;;
43154;SDS011;34212;51.018;13.586;2024-02-28T04:39:45;229.70;;;17.27;;
43154;SDS011;34212;51.018;13.586;2024-02-28T04:44:47;349.25;;;19.58;;
43154;SDS011;34212;51.018;13.586;2024-02-28T04:49:48;268.05;;;18.33;;
43154;SDS011;34212;51.018;13.586;2024-02-28T04:54:50;98.32;;;14.07;;
43154;SDS011;34212;51.018;13.586;2024-02-28T04:59:52;141.60;;;15.32;;
43154;SDS011;34212;51.018;13.586;2024-02-28T05:04:54;253.85;;;18.50;;
43154;SDS011;34212;51.018;13.586;2024-02-28T05:09:55;175.35;;;15.80;;
43154;SDS011;34212;51.018;13.586;2024-02-28T05:14:57;161.35;;;16.48;;
43154;SDS011;34212;51.018;13.586;2024-02-28T05:19:58;229.50;;;16.63;;
43154;SDS011;34212;51.018;13.586;2024-02-28T05:25:00;221.63;;;19.20;;
43154;SDS011;34212;51.018;13.586;2024-02-28T05:30:02;257.92;;;18.30;;
43154;SDS011;34212;51.018;13.586;2024-02-28T05:35:06;358.42;;;24.65;;
43154;SDS011;34212;51.018;13.586;2024-02-28T05:40:08;283.33;;;19.42;;
43154;SDS011;34212;51.018;13.586;2024-02-28T05:45:10;360.27;;;19.83;;
43154;SDS011;34212;51.018;13.586;2024-02-28T05:50:12;239.15;;;19.70;;
43154;SDS011;34212;51.018;13.586;2024-02-28T05:55:14;307.98;;;20.02;;
43154;SDS011;34212;51.018;13.586;2024-02-28T06:00:15;72.95;;;12.45;;
43154;SDS011;34212;51.018;13.586;2024-02-28T06:05:17;106.60;;;14.70;;
43154;SDS011;34212;51.018;13.586;2024-02-28T06:10:19;137.75;;;15.93;;
43154;SDS011;34212;51.018;13.586;2024-02-28T06:20:23;113.00;;;15.93;;
43154;SDS011;34212;51.018;13.586;2024-02-28T06:25:25;171.35;;;16.67;;
43154;SDS011;34212;51.018;13.586;2024-02-28T06:30:28;128.32;;;16.40;;
43154;SDS011;34212;51.018;13.586;2024-02-28T06:35:30;91.40;;;14.07;;
43154;SDS011;34212;51.018;13.586;2024-02-28T06:40:31;105.60;;;13.35;;
43154;SDS011;34212;51.018;13.586;2024-02-28T06:45:34;55.43;;;12.20;;
43154;SDS011;34212;51.018;13.586;2024-02-28T06:50:35;177.38;;;16.02;;
43154;SDS011;34212;51.018;13.586;2024-02-28T06:55:37;446.13;;;23.90;;
43154;SDS011;34212;51.018;13.586;2024-02-28T07:00:38;94.55;;;14.48;;
43154;SDS011;34212;51.018;13.586;2024-02-28T07:05:40;230.52;;;18.63;;
43154;SDS011;34212;51.018;13.586;2024-02-28T07:10:41;143.93;;;15.27;;
43154;SDS011;34212;51.018;13.586;2024-02-28T07:15:44;151.23;;;14.75;;
43154;SDS011;34212;51.018;13.586;2024-02-28T07:20:46;156.38;;;14.20;;
43154;SDS011;34212;51.018;13.586;2024-02-28T07:25:48;210.13;;;15.18;;
43154;SDS011;34212;51.018;13.586;2024-02-28T07:30:49;297.35;;;17.13;;
43154;SDS011;34212;51.018;13.586;2024-02-28T07:35:52;256.67;;;16.08;;
43154;SDS011;34212;51.018;13.586;2024-02-28T07:40:54;369.13;;;19.95;;
43154;SDS011;34212;51.018;13.586;2024-02-28T07:45:55;402.17;;;21.30;;
43154;SDS011;34212;51.018;13.586;2024-02-28T07:50:57;270.58;;;17.70;;
43154;SDS011;34212;51.018;13.586;2024-02-28T07:55:58;253.15;;;15.05;;
43154;SDS011;34212;51.018;13.586;2024-02-28T08:01:00;85.95;;;12.90;;
43154;SDS011;34212;51.018;13.586;2024-02-28T08:06:01;119.40;;;13.25;;
43154;SDS011;34212;51.018;13.586;2024-02-28T08:11:03;228.10;;;17.08;;
43154;SDS011;34212;51.018;13.586;2024-02-28T08:16:05;399.20;;;22.58;;
43154;SDS011;34212;51.018;13.586;2024-02-28T08:21:09;285.73;;;20.17;;
43154;SDS011;34212;51.018;13.586;2024-02-28T08:26:10;306.98;;;16.48;;
43154;SDS011;34212;51.018;13.586;2024-02-28T08:31:12;446.67;;;18.95;;
43154;SDS011;34212;51.018;13.586;2024-02-28T08:36:14;221.88;;;16.00;;
43154;SDS011;34212;51.018;13.586;2024-02-28T08:41:16;288.35;;;16.83;;
43154;SDS011;34212;51.018;13.586;2024-02-28T08:46:18;301.42;;;17.73;;
43154;SDS011;34212;51.018;13.586;2024-02-28T08:51:20;241.45;;;15.73;;
43154;SDS011;34212;51.018;13.586;2024-02-28T08:56:21;565.55;;;25.42;;
43154;SDS011;34212;51.018;13.586;2024-02-28T09:01:23;472.83;;;25.83;;
43154;SDS011;34212;51.018;13.586;2024-02-28T09:06:25;365.88;;;23.20;;
43154;SDS011;34212;51.018;13.586;2024-02-28T09:11:26;408.83;;;24.83;;
43154;SDS011;34212;51.018;13.586;2024-02-28T09:16:28;130.48;;;21.80;;
43154;SDS011;34212;51.018;13.586;2024-02-28T09:21:30;133.98;;;22.05;;
43154;SDS011;34212;51.018;13.586;2024-02-28T09:26:31;91.93;;;23.38;;
43154;SDS011;34212;51.018;13.586;2024-02-28T09:31:33;77.90;;;23.08;;
43154;SDS011;34212;51.018;13.586;2024-02-28T09:36:41;83.40;;;23.85;;
43154;SDS011;34212;51.018;13.586;2024-02-28T09:41:47;68.05;;;20.75;;
43154;SDS011;34212;51.018;13.586;2024-02-28T09:46:52;59.70;;;20.42;;
43154;SDS011;34212;51.018;13.586;2024-02-28T09:51:54;64.70;;;23.08;;
43154;SDS011;34212;51.018;13.586;2024-02-28T09:56:58;61.00;;;21.98;;
43154;SDS011;34212;51.018;13.586;2024-02-28T10:02:00;58.83;;;23.33;;
43154;SDS011;34212;51.018;13.586;2024-02-28T10:12:14;61.10;;;22.17;;
43154;SDS011;34212;51.018;13.586;2024-02-28T10:17:16;55.30;;;22.65;;
43154;SDS011;34212;51.018;13.586;2024-02-28T10:22:17;69.65;;;25.17;;
43154;SDS011;34212;51.018;13.586;2024-02-28T10:27:19;60.67;;;23.20;;
43154;SDS011;34212;51.018;13.586;2024-02-28T10:32:22;56.80;;;21.38;;
43154;SDS011;34212;51.018;13.586;2024-02-28T10:37:24;63.05;;;23.45;;
43154;SDS011;34212;51.018;13.586;2024-02-28T10:42:26;59.85;;;22.88;;
43154;SDS011;34212;51.018;13.586;2024-02-28T10:47:30;69.88;;;24.75;;
43154;SDS011;34212;51.018;13.586;2024-02-28T10:52:33;123.72;;;23.77;;
43154;SDS011;34212;51.018;13.586;2024-02-28T10:57:36;119.15;;;22.83;;
43154;SDS011;34212;51.018;13.586;2024-02-28T11:02:38;106.80;;;19.40;;
43154;SDS011;34212;51.018;13.586;2024-02-28T11:07:43;105.75;;;21.15;;
43154;SDS011;34212;51.018;13.586;2024-02-28T11:12:54;55.45;;;19.38;;
43154;SDS011;34212;51.018;13.586;2024-02-28T11:18:06;45.42;;;19.10;;
43154;SDS011;34212;51.018;13.586;2024-02-28T11:23:10;42.10;;;19.02;;
43154;SDS011;34212;51.018;13.586;2024-02-28T11:28:12;48.63;;;21.83;;
43154;SDS011;34212;51.018;13.586;2024-02-28T11:33:13;44.28;;;20.48;;
43154;SDS011;34212;51.018;13.586;2024-02-28T11:38:15;49.80;;;23.25;;
43154;SDS011;34212;51.018;13.586;2024-02-28T11:43:17;44.65;;;21.52;;
43154;SDS011;34212;51.018;13.586;2024-02-28T11:48:22;45.03;;;22.40;;
43154;SDS011;34212;51.018;13.586;2024-02-28T11:53:24;46.75;;;22.15;;
43154;SDS011;34212;51.018;13.586;2024-02-28T11:58:27;42.20;;;21.55;;
43154;SDS011;34212;51.018;13.586;2024-02-28T12:03:29;43.45;;;22.65;;
43154;SDS011;34212;51.018;13.586;2024-02-28T12:08:31;41.75;;;22.80;;
43154;SDS011;34212;51.018;13.586;2024-02-28T12:18:35;41.67;;;21.92;;
43154;SDS011;34212;51.018;13.586;2024-02-28T12:23:37;39.70;;;20.57;;
43154;SDS011;34212;51.018;13.586;2024-02-28T12:28:39;40.58;;;22.75;;
43154;SDS011;34212;51.018;13.586;2024-02-28T12:33:41;39.78;;;23.83;;
43154;SDS011;34212;51.018;13.586;2024-02-28T12:38:43;38.08;;;22.80;;
43154;SDS011;34212;51.018;13.586;2024-02-28T12:43:45;37.60;;;20.08;;
43154;SDS011;34212;51.018;13.586;2024-02-28T12:48:46;38.15;;;21.45;;
43154;SDS011;34212;51.018;13.586;2024-02-28T12:53:48;38.73;;;21.97;;
43154;SDS011;34212;51.018;13.586;2024-02-28T12:58:52;38.25;;;21.48;;
43154;SDS011;34212;51.018;13.586;2024-02-28T13:03:54;39.20;;;24.20;;
43154;SDS011;34212;51.018;13.586;2024-02-28T13:08:56;43.72;;;24.15;;
43154;SDS011;34212;51.018;13.586;2024-02-28T13:13:58;36.47;;;23.40;;
43154;SDS011;34212;51.018;13.586;2024-02-28T13:18:59;39.72;;;25.15;;
43154;SDS011;34212;51.018;13.586;2024-02-28T13:24:01;38.83;;;25.75;;
43154;SDS011;34212;51.018;13.586;2024-02-28T13:29:04;39.45;;;24.90;;
43154;SDS011;34212;51.018;13.586;2024-02-28T13:34:05;35.35;;;23.50;;
43154;SDS011;34212;51.018;13.586;2024-02-28T13:39:07;34.08;;;21.80;;
43154;SDS011;34212;51.018;13.586;2024-02-28T13:44:08;33.97;;;22.52;;
43154;SDS011;34212;51.018;13.586;2024-02-28T13:49:10;34.30;;;23.77;;
43154;SDS011;34212;51.018;13.586;2024-02-28T13:54:14;36.03;;;23.23;;
43154;SDS011;34212;51.018;13.586;2024-02-28T13:59:16;35.83;;;23.70;;
43154;SDS011;34212;51.018;13.586;2024-02-28T14:04:18;33.53;;;24.90;;
43154;SDS011;34212;51.018;13.586;2024-02-28T14:09:20;35.88;;;25.05;;
43154;SDS011;34212;51.018;13.586;2024-02-28T14:14:21;34.03;;;23.92;;
43154;SDS011;34212;51.018;13.586;2024-02-28T14:19:23;33.85;;;23.73;;
43154;SDS011;34212;51.018;13.586;2024-02-28T14:24:24;37.75;;;25.90;;
43154;SDS011;34212;51.018;13.586;2024-02-28T14:29:26;37.17;;;26.48;;
43154;SDS011;34212;51.018;13.586;2024-02-28T14:34:28;39.10;;;24.95;;
43154;SDS011;34212;51.018;13.586;2024-02-28T14:39:32;40.20;;;26.15;;
43154;SDS011;34212;51.018;13.586;2024-02-28T14:44:34;34.05;;;24.58;;
43154;SDS011;34212;51.018;13.586;2024-02-28T14:49:36;35.20;;;23.58;;
43154;SDS011;34212;51.018;13.586;2024-02-28T14:54:38;37.40;;;25.77;;
43154;SDS011;34212;51.018;13.586;2024-02-28T14:59:41;34.10;;;23.42;;
43154;SDS011;34212;51.018;13.586;2024-02-28T15:04:43;35.37;;;23.17;;
43154;SDS011;34212;51.018;13.586;2024-02-28T15:09:44;36.75;;;24.70;;
43154;SDS011;34212;51.018;13.586;2024-02-28T15:14:47;35.43;;;22.40;;
43154;SDS011;34212;51.018;13.586;2024-02-28T15:19:48;34.63;;;22.25;;
43154;SDS011;34212;51.018;13.586;2024-02-28T15:24:50;37.25;;;23.05;;
43154;SDS011;34212;51.018;13.586;2024-02-28T15:29:51;34.28;;;22.95;;
43154;SDS011;34212;51.018;13.586;2024-02-28T15:34:54;32.85;;;21.88;;
43154;SDS011;34212;51.018;13.586;2024-02-28T15:39:55;32.08;;;21.65;;
43154;SDS011;34212;51.018;13.586;2024-02-28T15:44:57;33.95;;;21.60;;
43154;SDS011;34212;51.018;13.586;2024-02-28T15:49:59;31.55;;;21.55;;
43154;SDS011;34212;51.018;13.586;2024-02-28T15:55:00;37.05;;;21.13;;
43154;SDS011;34212;51.018;13.586;2024-02-28T16:00:02;35.40;;;21.13;;
43154;SDS011;34212;51.018;13.586;2024-02-28T16:05:12;31.13;;;21.10;;
43154;SDS011;34212;51.018;13.586;2024-02-28T16:10:14;31.57;;;21.07;;
43154;SDS011;34212;51.018;13.586;2024-02-28T16:15:15;31.88;;;20.70;;
43154;SDS011;34212;51.018;13.586;2024-02-28T16:20:17;31.00;;;19.60;;
43154;SDS011;34212;51.018;13.586;2024-02-28T16:25:19;31.17;;;20.38;;
43154;SDS011;34212;51.018;13.586;2024-02-28T16:30:22;28.38;;;18.52;;
43154;SDS011;34212;51.018;13.586;2024-02-28T16:35:24;26.58;;;17.23;;
43154;SDS011;34212;51.018;13.586;2024-02-28T16:40:25;32.08;;;18.73;;
43154;SDS011;34212;51.018;13.586;2024-02-28T16:45:27;32.22;;;20.17;;
43154;SDS011;34212;51.018;13.586;2024-02-28T16:50:28;27.17;;;17.83;;
43154;SDS011;34212;51.018;13.586;2024-02-28T16:55:30;30.20;;;19.02;;
43154;SDS011;34212;51.018;13.586;2024-02-28T17:00:32;31.05;;;19.42;;
43154;SDS011;34212;51.018;13.586;2024-02-28T17:05:35;31.40;;;20.23;;
43154;SDS011;34212;51.018;13.586;2024-02-28T17:10:40;28.67;;;19.15;;
43154;SDS011;34212;51.018;13.586;2024-02-28T17:15:42;30.52;;;20.05;;
43154;SDS011;34212;51.018;13.586;2024-02-28T17:20:44;33.70;;;20.10;;
43154;SDS011;34212;51.018;13.586;2024-02-28T17:25:46;35.95;;;22.25;;
43154;SDS011;34212;51.018;13.586;2024-02-28T17:30:48;35.25;;;21.00;;
43154;SDS011;34212;51.018;13.586;2024-02-28T17:35:50;30.48;;;19.23;;
43154;SDS011;34212;51.018;13.586;2024-02-28T17:40:51;31.35;;;19.20;;
43154;SDS011;34212;51.018;13.586;2024-02-28T17:45:53;30.17;;;18.30;;
43154;SDS011;34212;51.018;13.586;2024-02-28T17:50:55;35.87;;;20.83;;
43154;SDS011;34212;51.018;13.586;2024-02-28T17:55:57;34.10;;;19.73;;
43154;SDS011;34212;51.018;13.586;2024-02-28T18:00:59;33.55;;;20.63;;
43154;SDS011;34212;51.018;13.586;2024-02-28T18:06:03;31.63;;;19.35;;
43154;SDS011;34212;51.018;13.586;2024-02-28T18:11:06;32.05;;;19.40;;
43154;SDS011;34212;51.018;13.586;2024-02-28T18:16:08;33.25;;;17.88;;
43154;SDS011;34212;51.018;13.586;2024-02-28T18:21:10;30.03;;;18.10;;
43154;SDS011;34212;51.018;13.586;2024-02-28T18:26:12;28.23;;;18.23;;
43154;SDS011;34212;51.018;13.586;2024-02-28T18:31:14;31.25;;;17.88;;
43154;SDS011;34212;51.018;13.586;2024-02-28T18:36:15;35.22;;;19.42;;
43154;SDS011;34212;51.018;13.586;2024-02-28T18:41:17;28.88;;;17.60;;
43154;SDS011;34212;51.018;13.586;2024-02-28T18:46:18;29.90;;;17.35;;
43154;SDS011;34212;51.018;13.586;2024-02-28T18:51:20;29.70;;;18.15;;
43154;SDS011;34212;51.018;13.586;2024-02-28T18:56:21;26.83;;;16.73;;
43154;SDS011;34212;51.018;13.586;2024-02-28T19:01:23;26.33;;;17.27;;
43154;SDS011;34212;51.018;13.586;2024-02-28T19:06:25;32.70;;;17.48;;
43154;SDS011;34212;51.018;13.586;2024-02-28T19:11:26;27.15;;;16.60;;
43154;SDS011;34212;51.018;13.586;2024-02-28T19:16:28;27.92;;;16.90;;
43154;SDS011;34212;51.018;13.586;2024-02-28T19:21:30;31.63;;;18.03;;
43154;SDS011;34212;51.018;13.586;2024-02-28T19:26:32;28.15;;;17.40;;
43154;SDS011;34212;51.018;13.586;2024-02-28T19:31:33;31.42;;;16.90;;
43154;SDS011;34212;51.018;13.586;2024-02-28T19:36:35;27.42;;;16.80;;
43154;SDS011;34212;51.018;13.586;2024-02-28T19:41:37;29.95;;;16.25;;
43154;SDS011;34212;51.018;13.586;2024-02-28T19:46:46;29.20;;;15.88;;
43154;SDS011;34212;51.018;13.586;2024-02-28T19:51:47;28.88;;;16.50;;
43154;SDS011;34212;51.018;13.586;2024-02-28T19:56:49;30.60;;;16.80;;
43154;SDS011;34212;51.018;13.586;2024-02-28T20:01:51;27.60;;;15.48;;
43154;SDS011;34212;51.018;13.586;2024-02-28T20:06:52;27.17;;;16.13;;
43154;SDS011;34212;51.018;13.586;2024-02-28T20:11:54;26.45;;;15.23;;
43154;SDS011;34212;51.018;13.586;2024-02-28T20:16:56;27.83;;;16.57;;
43154;SDS011;34212;51.018;13.586;2024-02-28T20:22:00;25.90;;;15.43;;
43154;SDS011;34212;51.018;13.586;2024-02-28T20:27:01;28.38;;;15.88;;
43154;SDS011;34212;51.018;13.586;2024-02-28T20:32:03;30.13;;;16.67;;
43154;SDS011;34212;51.018;13.586;2024-02-28T20:37:05;32.00;;;16.48;;
43154;SDS011;34212;51.018;13.586;2024-02-28T20:42:07;27.77;;;16.15;;
43154;SDS011;34212;51.018;13.586;2024-02-28T20:47:09;27.30;;;17.02;;
43154;SDS011;34212;51.018;13.586;2024-02-28T20:52:10;31.95;;;15.32;;
43154;SDS011;34212;51.018;13.586;2024-02-28T20:57:12;32.87;;;16.53;;
43154;SDS011;34212;51.018;13.586;2024-02-28T21:02:17;31.52;;;16.80;;
43154;SDS011;34212;51.018;13.586;2024-02-28T21:07:19;30.20;;;16.73;;
43154;SDS011;34212;51.018;13.586;2024-02-28T21:12:34;28.45;;;15.75;;
43154;SDS011;34212;51.018;13.586;2024-02-28T21:17:36;28.50;;;15.85;;
43154;SDS011;34212;51.018;13.586;2024-02-28T21:22:38;29.63;;;15.80;;
43154;SDS011;34212;51.018;13.586;2024-02-28T21:27:41;25.73;;;14.60;;
43154;SDS011;34212;51.018;13.586;2024-02-28T21:32:43;25.70;;;13.30;;
43154;SDS011;34212;51.018;13.586;2024-02-28T21:37:45;28.00;;;14.40;;
43154;SDS011;34212;51.018;13.586;2024-02-28T21:42:49;28.30;;;14.07;;
43154;SDS011;34212;51.018;13.586;2024-02-28T21:52:56;24.10;;;13.80;;
43154;SDS011;34212;51.018;13.586;2024-02-28T21:57:57;26.98;;;14.00;;
43154;SDS011;34212;51.018;13.586;2024-02-28T22:03:00;25.88;;;14.75;;
43154;SDS011;34212;51.018;13.586;2024-02-28T22:08:01;23.88;;;13.52;;
43154;SDS011;34212;51.018;13.586;2024-02-28T22:13:04;22.67;;;13.05;;
43154;SDS011;34212;51.018;13.586;2024-02-28T22:18:06;29.27;;;15.87;;
43154;SDS011;34212;51.018;13.586;2024-02-28T22:23:08;30.45;;;15.10;;
43154;SDS011;34212;51.018;13.586;2024-02-28T22:28:10;26.92;;;14.20;;
43154;SDS011;34212;51.018;13.586;2024-02-28T22:33:11;31.45;;;14.32;;
43154;SDS011;34212;51.018;13.586;2024-02-28T22:38:13;27.58;;;13.77;;
43154;SDS011;34212;51.018;13.586;2024-02-28T22:43:15;27.50;;;13.75;;
43154;SDS011;34212;51.018;13.586;2024-02-28T22:48:16;22.85;;;12.05;;
43154;SDS011;34212;51.018;13.586;2024-02-28T22:53:18;23.42;;;12.52;;
43154;SDS011;34212;51.018;13.586;2024-02-28T22:58:19;25.98;;;13.23;;
43154;SDS011;34212;51.018;13.586;2024-02-28T23:03:21;21.85;;;11.93;;
43154;SDS011;34212;51.018;13.586;2024-02-28T23:08:22;23.35;;;13.05;;
43154;SDS011;34212;51.018;13.586;2024-02-28T23:13:24;24.90;;;12.82;;
43154;SDS011;34212;51.018;13.586;2024-02-28T23:18:25;22.73;;;11.85;;
43154;SDS011;34212;51.018;13.586;2024-02-28T23:23:27;18.50;;;10.87;;
43154;SDS011;34212;51.018;13.586;2024-02-28T23:28:29;21.30;;;10.75;;
43154;SDS011;34212;51.018;13.586;2024-02-28T23:33:30;21.10;;;11.60;;
43154;SDS011;34212;51.018;13.586;2024-02-28T23:38:32;19.67;;;10.02;;
43154;SDS011;34212;51.018;13.586;2024-02-28T23:43:34;21.40;;;10.90;;
43154;SDS011;34212;51.018;13.586;2024-02-28T23:48:35;20.42;;;11.25;;
43154;SDS011;34212;51.018;13.586;2024-02-28T23:53:37;22.27;;;10.30;;
43154;SDS011;34212;51.018;13.586;2024-02-28T23:58:38;20.08;;;10.55;;
